Ride Results

Manilla Westpac Rescue Helicopter Ride (06-09-2009)
Ride distance: 80.0 km

Outcomes - Manilla Westpac Rescue Helicopter Ride (06-09-2009)
Division No. of Entries Retired / DNE Completed Withdrawn Ineligible V/O Percentage Completed
HW 12 - 11 - - 1 91.67%
MW 31 - 28 - - 3 90.32%
LW 12 - 11 1 - - 91.67%
JN 8 - 6 - - 2 75.00%
Totals 63 - 56 1 - 6 88.89%
Results - Manilla Westpac Rescue Helicopter Ride (06-09-2009)
No. Rider Horse Place Time Leg Speeds Total
Km/Hr
H/R bpm
Heavyweight
35 Rod Mitchell Aloha Naja 1 (BC) 4:59:00 18.8, 13.5 16.05 31, 35, 44 (Avg:39)
25 Charles Gauci Charleville Lady 2 5:07:00 15.5, 15.7 15.64 39, 48, 54 (Avg:51)
29 Jennifer Hargraves Kaaren Azire Celebrity 3 5:40:00 15.4, 12.7 14.12 38, 44, 54 (Avg:49)
10 Paul Monger Oak-Glen Dark Sequel 3 5:40:00 15.9, 12.4 14.12 43, 44, 54 (Avg:49)
36 Roy Barsby Dumaresque Montgomery 5 6:08:00 13.7, 12.2 13.04 34, 41, 45 (Avg:43)
46 Dallas Blakely Rachem Mustava Heart 6 6:16:00 14.8, 10.9 12.77 35, 41, 50 (Avg:45)
55 Peter Strickland Rivergum Zara 7 6:50:00 12.4, 10.9 11.71 40, 40, 46 (Avg:43)
28 Michael Boland Rosebrae Alladin 8 7:21:00 11.6, 10.0 10.88 40, 45, 50 (Avg:47)
64 Haydn Fisher Churinga J'amee 8 7:21:00 11.7, 9.9 10.88 36, 45, 49 (Avg:47)
22 Christine Willcox Heaney Seafairer 10 7:53:00 11.0, 9.1 10.15 34, 44, 54 (Avg:49)
20 John Willcox Two Jays John Thomas 10 7:53:00 11.0, 9.1 10.15 39, 48, 58 (Avg:53)
60 Allan Caslick Raymar Aria (exp BH) Lame L2 0:00:00 15.5, 2.9 - 35, 44, 50 (Avg:47)
Middleweight
27 Margaret Boland A'Landell Karlinta 1 (BC) 3:47:00 20.4, 22.0 21.15 37, 48, 48 (Avg:48)
40 Darryl King Shanadarr Khaleel 2 4:48:00 20.3, 13.6 16.67 41, 44, 48 (Avg:46)
33 Jennifer Gilbertson Coolahlee Park Samba 3 5:07:00 15.9, 15.3 15.64 48, 43, 50 (Avg:46)
51 Tracy Haack Clovelly Park Tazeem 3 5:07:00 15.5, 15.7 15.64 40, 37, 39 (Avg:38)
61 Mark Harvey Raymar Yasmin (exp BH) 3 5:07:00 15.5, 15.7 15.64 30, 35, 37 (Avg:36)
3 Susan Pritchard Macquarie Park Dakota 6 5:34:00 15.9, 12.8 14.37 44, 52, 54 (Avg:53)
17 Sheree Gray Happy Joseph 7 5:37:00 15.9, 12.6 14.24 40, 49, 50 (Avg:49)
5 Garry Bennett McDonald Park Focus 8 6:07:00 14.3, 11.8 13.08 32, 49, 48 (Avg:48)
8 Dianne Luker A'Landell Corvet 8 6:07:00 14.3, 11.8 13.08 33, 42, 52 (Avg:47)
30 Ron Males Saharri Park Shahsaar 10 6:15:00 13.9, 11.6 12.80 32, 45, 50 (Avg:47)
45 Jacob Philpott Webbs Creek Rising Fast 11 6:15:30 13.9, 11.5 12.78 32, 44, 60 (Avg:52)
44 Emily Streckfuss Howard Park Shataan 11 6:15:30 13.9, 11.5 12.78 37, 39, 48 (Avg:43)
18 Adam Kirk Palio 13 6:35:00 14.0, 10.4 12.15 40, 42, 48 (Avg:45)
34 Allison Knihinicki Garnee Ballistic 13 6:35:00 14.0, 10.4 12.15 30, 45, 45 (Avg:45)
26 Dean Walkom Santa Pasa Zaraq 15 6:43:00 12.4, 11.3 11.91 44, 44, 48 (Avg:46)
48 Raymond Griffiths Ginger Megs 16 6:45:00 12.4, 11.1 11.85 40, 46, 46 (Avg:46)
62 Marina Adair Tranquility Tango 17 7:17:00 10.4, 11.6 10.98 54, 46, 48 (Avg:47)
13 Suzanne Barton Naz-ton Count Buccaneer 17 7:17:00 10.4, 11.6 10.98 64, 41, 45 (Avg:43)
39 Gail Fisher Shellal Cattle King Flyte 19 7:21:00 11.7, 9.9 10.88 38, 42, 44 (Avg:43)
52 Ruth Van der Wegen Razorback Kendra 19 7:21:00 11.7, 9.9 10.88 37, 36, 44 (Avg:40)
50 Frank Flissinger Ranjen Krystal Cascade 21 7:30:00 8.8, 14.2 10.67 34, 40, 45 (Avg:42)
12 Naomi Hooper Bendy Bay 22 7:35:00 10.6, 10.3 10.55 40, 48, 59 (Avg:53)
42 Tina Walker Battenville Cowboy 23 7:46:00 10.5, 9.9 10.30 43, 43, 52 (Avg:47)
43 Judith Burton Woodbourne Katmando 24 7:47:00 10.6, 9.8 10.28 33, 38, 38 (Avg:38)
56 Katrina Bodewes Booramby Silver Elk 25 7:59:00 10.2, 9.7 10.02 37, 42, 46 (Avg:44)
59 Virginia King Callanish Angel 26 8:15:00 11.6, 8.0 9.70 40, 46, 55 (Avg:50)
32 Fiona Meller Keldon Park Sophena 27 8:23:00 10.2, 8.8 9.54 40, 44, 49 (Avg:46)
31 David Player Ryton Pipes of Peace 27 8:23:00 10.2, 8.8 9.54 34, 39, 46 (Avg:42)
53 Brad Dillon Banfield Mystical Lame L2 0:00:00 14.2, 11.1 - 38, 50, 54 (Avg:52)
58 Jane Martin Dot Martin Lame L1 0:00:00 12.4 - 42, 46 (Avg:46)
11 Daphne Phillips Gene Geany Lame L1 0:00:00 19.5 - 36, 52 (Avg:52)
Lightweight
7 Bec Miller Woodbourne Betty 1 (BC) 3:41:00 20.3, 23.7 21.72 34, 52, 52 (Avg:52)
54 Gloria Mills Glendos Sabodie 2 5:28:00 17.9, 11.9 14.63 31, 36, 38 (Avg:37)
2 Kim Hagon Gandari Alva Caasteele 3 5:37:00 15.9, 12.5 14.24 46, 47, 48 (Avg:47)
41 Patsy Trevor Shahfa 4 6:04:00 15.4, 11.1 13.19 34, 40, 48 (Avg:44)
37 Deanna Trevena Warr of the Roses 5 6:08:00 13.7, 12.2 13.04 33, 36, 44 (Avg:40)
38 Abby McMurrich Tannamara Reimahni 6 6:18:00 14.2, 11.1 12.70 43, 47, 52 (Avg:49)
19 Linda Logan Follydown Topaz 7 6:36:00 14.1, 10.3 12.12 40, 45, 53 (Avg:49)
47 Carol Layton Oak-Glen Isis 8 6:50:00 12.4, 10.9 11.71 38, 40, 44 (Avg:42)
9 Belle Bollard Badger 9 7:20:00 11.6, 10.1 10.91 37, 49, 54 (Avg:51)
1 Jessica Taylor Diamond R Amaya 10 7:46:00 10.5, 9.9 10.30 40, 47, 55 (Avg:51)
21 Amanda Stirling Ringarah Malik 11 7:53:00 11.0, 9.1 10.15 38, 42, 45 (Avg:43)
63 Kate Pilley Binks Withdrawn L1 0:00:00 - - 26, 38 (Avg:38)
Junior
6 Britteny Price Goondaloo Blue 1 (BC) 3:41:00 20.3, 23.7 21.72 34, 43, 50 (Avg:46)
4 Sharna Harvey Velona Bartez 2 5:28:00 17.9, 11.9 14.63 39, 40, 44 (Avg:42)
49 Sophie Babic Cherox Zafina 3 6:45:00 12.4, 11.1 11.85 34, 41, 46 (Avg:43)
16 Zac Hooper Topline Sophine 4 7:36:00 10.6, 10.3 10.53 35, 37, 45 (Avg:41)
15 Trinity Hooper Roxborough Pegasus 5 7:47:00 10.6, 9.8 10.28 36, 39, 50 (Avg:44)
57 Mia Bodewes Leechdale Golden Jackpot 6 7:59:00 10.2, 9.7 10.02 42, 46, 56 (Avg:51)
23 Robert Gauci Tom Dooley Lame L2 0:00:00 13.1, 8.8 - 32, 47, 53 (Avg:50)
14 Leanna Maynard Coco Lame L1 0:00:00 20.3 - 38, 43 (Avg:43)